NEODyS-2

Near Earth Objects - Dynamic Site
NEODyS ∴ Observatories ∴ Site 691 ∴ Obs & residuals
Contact »
691  ▹ 
OBSERVATIONS AND RESIDUALS

691-Steward Observatory, Kitt Peak-Spacewatch

Detections | Residuals | Detections & Residuals

[1-200] [201-400] [401-600] [601-800] [801-1000] [1001-1200] [1201-1400] [1401-1600] [1601-1800] [1801-2000] [2001-2200] [2201-2400] [2401-2600] [2601-2800] [2801-3000] [3001-3200] [3201-3400] [3401-3600] [3601-3800] [3801-4000] [4001-4200] [4201-4400] [4401-4600] [4601-4800] [4801-5000] [5001-5200] [5201-5400] [5401-5600] [5601-5800] [5801-6000] [6001-6200] [6201-6400] [6401-6600] [6601-6800] [6801-7000] [7001-7200] [7201-7400] [7401-7600] [7601-7800] [7801-8000] [8001-8200] [8201-8400] [8401-8600] [8601-8800] [8801-9000] [9001-9200] [9201-9400] [9401-9600] [9601-9800] [9801-10000] [10001-10200] [10201-10400] [10401-10600] [10601-10800] [10801-11000] [11001-11200] [11201-11400] [11401-11600] [11601-11800] [11801-12000] [12001-12200] [12201-12400] [12401-12600] [12601-12800] [12801-13000] [13001-13200] [13201-13400] [13401-13600] [13601-13800] [13801-14000] [14001-14200] [14201-14400] [14401-14600] [14601-14800] [14801-15000] [15001-15200] [15201-15400] [15401-15600] [15601-15800] [15801-16000] [16001-16200] [16201-16400] [16401-16600] [16601-16800] [16801-17000] [17001-17200] [17201-17400] [17401-17600] [17601-17800] [17801-18000] [18001-18200] [18201-18400] [18401-18600] [18601-18800] [18801-19000] [19001-19200] [19201-19400] [19401-19600] [19601-19800] [19801-20000] [20001-20200] [20201-20400] [20401-20600] [20601-20800] [20801-21000] [21001-21200] [21201-21400] [21401-21600] [21601-21800] [21801-22000] [22001-22200] [22201-22400] [22401-22600] [22601-22800] [22801-23000] [23001-23200] [23201-23400] [23401-23600] [23601-23800] [23801-24000] [24001-24200] [24201-24400] [24401-24600] [24601-24800] [24801-25000] [25001-25200] [25201-25400] [25401-25600] [25601-25800] [25801-26000] [26001-26200] [26201-26400] [26401-26600] [26601-26800] [26801-27000] [27001-27200] [27201-27400] [27401-27600] [27601-27800] [27801-28000] [28001-28200] [28201-28400] [28401-28600] [28601-28800] [28801-29000] [29001-29200] [29201-29400] [29401-29600] [29601-29800] [29801-30000] [30001-30200] [30201-30400] [30401-30600] [30601-30800] [30801-31000] [31001-31200] [31201-31400] [31401-31600] [31601-31800] [31801-32000] [32001-32200] [32201-32400] [32401-32600] [32601-32800] [32801-33000] [33001-33200] [33201-33400] [33401-33600] [33601-33800] [33801-34000] [34001-34200] [34201-34400] [34401-34600] [34601-34800] [34801-35000] [35001-35200] [35201-35400] [35401-35600] [35601-35800] [35801-36000] [36001-36200] [36201-36400] [36401-36600] [36601-36800] [36801-37000] [37001-37200] [37201-37400] [37401-37600] [37601-37800] [37801-38000] [38001-38200] [38201-38400] [38401-38600] [38601-38800] [38801-39000] [39001-39200] [39201-39400] [39401-39600] [39601-39800] [39801-40000] [40001-40200] [40201-40400] [40401-40600] [40601-40800] [40801-41000] [41001-41200] [41201-41400] [41401-41600] [41601-41800] [41801-42000] [42001-42200] [42201-42400] [42401-42600] [42601-42800] [42801-43000] [43001-43200] [43201-43400] [43401-43600] [43601-43800] [43801-44000] [44001-44200] [44201-44400] [44401-44600] [44601-44800] [44801-45000] [45001-45200] [45201-45400] [45401-45600] [45601-45800] [45801-46000] [46001-46200] [46201-46400] [46401-46600] [46601-46800] [46801-47000] [47001-47200] [47201-47400] [47401-47600] [47601-47800] [47801-48000] [48001-48200] [48201-48400] [48401-48600] [48601-48800] [48801-49000] [49001-49200] [49201-49400] [49401-49600] [49601-49800] [49801-50000] [50001-50200] [50201-50400] [50401-50600] [50601-50741]

Designation T Tech N Date Right Ascension Declination Apparent Magnitude Star Catalog Site code χ Used A Used M
yr-mo-day precision hr:min:sec precision rms F bias residual deg min sec precision rms F bias residual mag/col rms residual
2017HN3 O C H 2017-04-30.45386 1.000E-05 14:54:43.710 1.500E-01 0.500 F 0.364 0.187 +04° 24' 57.80" 1.000E-01 0.500 F 0.097 0.141 20.2 R 0.70 0.14 o 691 0.47 Yes Yes
2017FC157 O C H 2017-04-30.45759 1.000E-05 15:42:26.530 1.500E-01 0.500 F 0.124 -0.130 +20° 24' 16.30" 1.000E-01 0.500 F 0.252 0.018 21.2 R 0.70 0.10 o 691 0.26 Yes Yes
2017FC157 O C H 2017-04-30.46489 1.000E-05 15:42:26.490 1.500E-01 0.500 F 0.124 0.033 +20° 24' 30.00" 1.000E-01 0.500 F 0.252 -0.380 21.8 R 0.70 0.70 o 691 0.78 Yes Yes
2017HN3 O C H 2017-04-30.46853 1.000E-05 14:54:43.730 1.500E-01 0.500 F 0.364 0.165 +04° 25' 31.10" 1.000E-01 0.500 F 0.097 0.558 21.0 R 0.70 0.94 o 691 1.17 Yes Yes
2017FC157 O C H 2017-04-30.47217 1.000E-05 15:42:26.440 1.500E-01 0.500 F 0.124 0.010 +20° 24' 44.20" 1.000E-01 0.500 F 0.252 -0.211 21.7 R 0.70 0.60 o 691 0.43 Yes Yes
2017CS O C 2017-05-01.14244 1.000E-05 09:27:12.100 1.500E-01 0.500 F 0.012 -0.298 -09° 28' 42.60" 1.000E-01 0.500 F 0.091 -0.046 18.4 V 0.70 0.29 o 691 0.60 Yes Yes
2017CS O C 2017-05-01.15110 1.000E-05 09:27:12.160 1.500E-01 0.500 F 0.012 -0.229 -09° 28' 35.40" 1.000E-01 0.500 F 0.091 -0.057 18.6 V 0.70 0.49 o 691 0.47 Yes Yes
2017CS O C 2017-05-01.15980 1.000E-05 09:27:12.220 1.500E-01 0.500 F 0.012 -0.220 -09° 28' 28.10" 1.000E-01 0.500 F 0.091 -0.029 18.6 V 0.70 0.49 o 691 0.44 Yes Yes
2012HN13 O C 2017-05-01.26344 1.000E-05 13:19:28.030 1.500E-01 0.500 F 0.150 -0.025 +13° 11' 37.20" 1.000E-01 0.500 F 0.086 0.069 19.6 V 0.70 -0.37 o 691 0.15 Yes Yes
2012HN13 O C 2017-05-01.27197 1.000E-05 13:19:27.450 1.500E-01 0.500 F 0.150 -0.385 +13° 12' 08.60" 1.000E-01 0.500 F 0.086 0.427 20.2 V 0.70 0.23 o 691 1.16 Yes Yes
2017HD49 O C H 2017-05-01.27440 1.000E-05 13:18:59.950 1.500E-01 0.500 F 0.243 -0.308 -03° 53' 31.80" 1.000E-01 0.500 F 0.015 0.683 20.5 R 0.70 0.68 o 691 1.52 Yes Yes
2012HN13 O C 2017-05-01.28045 1.000E-05 13:19:26.900 1.500E-01 0.500 F 0.150 -0.369 +13° 12' 38.20" 1.000E-01 0.500 F 0.086 -0.804 20.0 V 0.70 0.03 o 691 1.78 Yes Yes
2017HD49 O C H 2017-05-01.28288 1.000E-05 13:19:00.780 1.500E-01 0.500 F 0.243 1.042 -03° 52' 57.70" 1.000E-01 0.500 F 0.015 0.480 20.9 R 0.70 1.08 o 691 2.32 Yes Yes
2017HX4 O C H 2017-05-01.28848 1.000E-05 13:55:52.130 1.500E-01 0.500 F 0.241 0.506 -06° 41' 14.90" 1.000E-01 0.500 F 0.159 0.408 20.9 R 0.70 0.57 o 691 1.34 Yes Yes
2017HX4 O C H 2017-05-01.29378 1.000E-05 13:55:51.460 1.500E-01 0.500 F 0.241 -1.546 -06° 41' 44.70" 1.000E-01 0.500 F 0.159 -1.798 21.1 R 0.70 0.77 o 691 4.57 No Yes
2017HX4 O C H 2017-05-01.29908 1.000E-05 13:55:51.020 1.500E-01 0.500 F 0.131 -0.064 -06° 42' 09.60" 1.000E-01 0.500 F 0.068 1.007 20.8 R 0.70 0.47 o 691 2.14 Yes Yes
2017HZ4 O C K 2017-05-01.30381 1.000E-05 14:21:11.390 1.500E-01 0.500 F 0.101 0.072 -02° 00' 06.80" 1.000E-01 0.500 F 0.189 -0.206 21.0 R 0.70 0.15 o 691 0.44 Yes Yes
2017HZ4 O C K 2017-05-01.32524 1.000E-05 14:21:01.390 1.500E-01 0.500 F 0.101 -1.476 -01° 59' 30.50" 1.000E-01 0.500 F 0.189 -0.391 o 691 3.07 Yes No
2017HJ49 O C H 2017-05-01.33996 1.000E-05 14:52:34.510 1.500E-01 0.500 F 0.297 -0.884 -13° 09' 59.10" 1.000E-01 0.500 F 0.098 -0.592 o 691 2.19 Yes No
2017FK128 O C H 2017-05-01.34314 1.000E-05 14:58:33.990 1.500E-01 0.500 F 0.341 0.678 -11° 46' 25.00" 1.000E-01 0.500 F 0.245 -0.275 o 691 1.49 Yes No
2017HR49 O C H 2017-05-01.34678 1.000E-05 15:00:20.150 1.500E-01 0.500 F 0.124 -0.482 -03° 28' 28.30" 1.000E-01 0.500 F 0.162 -0.470 o 691 1.36 Yes No
2017HJ49 O C H 2017-05-01.34996 1.000E-05 14:52:32.370 1.500E-01 0.500 F 0.297 -0.661 -13° 10' 06.20" 1.000E-01 0.500 F 0.098 0.562 21.2 R 0.70 0.65 o 691 1.76 Yes Yes
2017FK128 O C H 2017-05-01.35314 1.000E-05 14:58:33.680 1.500E-01 0.500 F 0.341 -0.396 -11° 46' 14.80" 1.000E-01 0.500 F 0.245 0.484 21.2 R 0.70 0.28 o 691 1.27 Yes Yes
2017HR49 O C H 2017-05-01.35678 1.000E-05 15:00:19.410 1.500E-01 0.500 F 0.124 -0.710 -03° 28' 25.40" 1.000E-01 0.500 F 0.162 -0.776 21.6 R 0.70 0.53 o 691 2.12 Yes Yes
2017FK128 O C H 2017-05-01.36314 1.000E-05 14:58:33.500 1.500E-01 0.500 F 0.341 0.421 -11° 46' 07.60" 1.000E-01 0.500 F 0.245 -1.774 o 691 3.58 No No
2017HR49 O C H 2017-05-01.36678 1.000E-05 15:00:18.710 1.500E-01 0.500 F 0.124 -0.342 -03° 28' 21.40" 1.000E-01 0.500 F 0.162 0.017 o 691 0.69 Yes No
2017GQ4 O C H 2017-05-01.37010 1.000E-05 15:34:10.960 1.500E-01 0.500 F 0.215 -0.120 -08° 30' 18.60" 1.000E-01 0.500 F 0.031 0.096 20.5 R 0.70 0.19 o 691 0.31 Yes Yes
2017HZ48 O C H 2017-05-01.37757 1.000E-05 15:32:09.720 1.500E-01 0.500 F 0.217 0.540 -24° 42' 17.10" 1.000E-01 0.500 F 0.341 -0.236 21.4 R 0.70 0.40 o 691 1.22 Yes Yes
2017GQ4 O C H 2017-05-01.38028 1.000E-05 15:34:12.280 1.500E-01 0.500 F 0.215 -0.400 -08° 29' 57.70" 1.000E-01 0.500 F 0.031 -0.267 21.1 R 0.70 0.79 o 691 0.97 Yes Yes
2017HZ48 O C H 2017-05-01.38772 1.000E-05 15:32:07.660 1.500E-01 0.500 F 0.217 0.585 -24° 42' 46.50" 1.000E-01 0.500 F 0.341 -0.684 o 691 1.87 Yes No
2017GQ4 O C H 2017-05-01.39042 1.000E-05 15:34:13.580 1.500E-01 0.500 F 0.215 -0.931 -08° 29' 36.70" 1.000E-01 0.500 F 0.031 -0.473 o 691 2.11 Yes No
2017HZ48 O C H 2017-05-01.39788 1.000E-05 15:32:05.450 1.500E-01 0.500 F 0.217 -1.483 -24° 43' 15.50" 1.000E-01 0.500 F 0.341 -0.864 21.3 R 0.70 0.30 o 691 3.30 No Yes
2017HW48 O C H 2017-05-01.40105 1.000E-05 16:38:24.860 1.500E-01 0.500 F 0.040 -0.385 -09° 43' 40.80" 1.000E-01 0.500 F 0.138 -0.532 o 691 1.32 Yes No
2017HP49 O C H 2017-05-01.40801 1.000E-05 16:26:26.760 1.500E-01 0.500 F 0.157 0.338 +00° 01' 12.90" 1.000E-01 0.500 F 0.323 -0.349 o 691 0.98 Yes No
2017HW48 O C H 2017-05-01.41134 1.000E-05 16:38:25.500 1.500E-01 0.500 F 0.040 0.143 -09° 43' 39.40" 1.000E-01 0.500 F 0.138 -0.290 o 691 0.65 Yes No
2017HP49 O C H 2017-05-01.41830 1.000E-05 16:26:28.650 1.500E-01 0.500 F 0.157 -0.344 +00° 01' 15.10" 1.000E-01 0.500 F 0.323 0.014 o 691 0.69 Yes No
2017HW48 O C H 2017-05-01.42163 1.000E-05 16:38:26.070 1.500E-01 0.500 F 0.040 -0.370 -09° 43' 38.40" 1.000E-01 0.500 F 0.138 -0.457 o 691 1.18 Yes No
2017HP49 O C H 2017-05-01.42860 1.000E-05 16:26:30.620 1.500E-01 0.500 F 0.157 0.094 +00° 01' 17.40" 1.000E-01 0.500 F 0.323 0.478 21.2 R 0.70 0.89 o 691 0.98 Yes Yes
2014JG78 O C H 2017-05-01.43192 1.000E-05 16:52:37.830 1.500E-01 0.500 F 0.076 0.079 +10° 36' 16.20" 1.000E-01 0.500 F 0.211 0.197 21.3 R 0.70 0.36 o 691 0.43 Yes Yes
2017HN49 O C 2017-05-01.43921 1.000E-05 15:53:17.570 1.500E-01 0.500 F 0.186 -0.018 -10° 20' 21.10" 1.000E-01 0.500 F 0.195 0.088 20.4 V 0.70 -0.46 o 691 0.18 Yes Yes
2017HN49 O C 2017-05-01.45032 1.000E-05 15:53:17.720 1.500E-01 0.500 F 0.186 0.337 -10° 20' 29.10" 1.000E-01 0.500 F 0.195 -0.575 21.0 V 0.70 0.14 o 691 1.34 Yes Yes
2014JG78 O C H 2017-05-01.45418 1.000E-05 16:52:36.610 1.500E-01 0.500 F 0.076 -0.601 +10° 36' 58.60" 1.000E-01 0.500 F 0.211 1.055 o 691 2.44 Yes No
2017HN49 O C 2017-05-01.46147 1.000E-05 15:53:17.790 1.500E-01 0.500 F 0.186 -0.546 -10° 20' 35.90" 1.000E-01 0.500 F 0.195 -0.022 21.1 V 0.70 0.24 o 691 1.10 Yes Yes
2017GT6 O C H 2017-05-01.46540 1.000E-05 17:42:46.570 1.500E-01 0.500 F -0.014 -0.062 +26° 59' 30.30" 1.000E-01 0.500 F 0.267 -0.898 o 691 1.81 Yes No
2017GT6 O C H 2017-05-01.47134 1.000E-05 17:42:50.250 1.500E-01 0.500 F -0.014 -0.742 +26° 59' 52.60" 1.000E-01 0.500 F 0.267 -0.232 o 691 1.57 Yes No
2017GT6 O C H 2017-05-01.47726 1.000E-05 17:42:53.950 1.500E-01 0.500 F -0.014 -1.010 +27° 00' 12.90" 1.000E-01 0.500 F 0.267 -1.452 o 691 3.52 No No
2017BL6 O C K 2017-05-02.13779 1.000E-05 08:26:57.850 1.500E-01 0.500 F -0.057 0.884 -11° 45' 53.70" 1.000E-01 0.500 F 0.035 -0.213 20.2 R 0.70 -0.38 o 691 1.83 Yes Yes
2017BL6 O C K 2017-05-02.14684 1.000E-05 08:26:59.950 1.500E-01 0.500 F -0.057 0.317 -11° 45' 56.60" 1.000E-01 0.500 F 0.035 -0.017 o 691 0.64 Yes No
2017BL6 O C K 2017-05-02.15587 1.000E-05 08:27:02.100 1.500E-01 0.500 F -0.057 0.495 -11° 45' 59.80" 1.000E-01 0.500 F 0.035 -0.144 o 691 1.04 Yes No
2017FP64 O C H 2017-05-02.16559 1.000E-05 09:21:37.360 1.500E-01 0.500 F 0.034 -0.193 +18° 11' 06.80" 1.000E-01 0.500 F 0.194 0.278 20.7 R 0.70 0.85 o 691 0.68 Yes Yes
2011GL62 O C K 2017-05-02.16803 1.000E-05 09:36:54.220 1.500E-01 0.500 F 0.096 0.413 +30° 09' 05.60" 1.000E-01 0.500 F 0.189 -0.318 18.8 R 0.70 -0.37 o 691 1.08 Yes Yes
2017FP64 O C H 2017-05-02.17173 1.000E-05 09:21:38.670 1.500E-01 0.500 F 0.034 -1.409 +18° 11' 09.20" 1.000E-01 0.500 F 0.194 -0.229 o 691 2.89 Yes No
2011GL62 O C K 2017-05-02.17392 1.000E-05 09:36:58.080 1.500E-01 0.500 F 0.096 0.523 +30° 08' 52.90" 1.000E-01 0.500 F 0.189 0.231 18.8 R 0.70 -0.37 o 691 1.21 Yes Yes
2017FP64 O C H 2017-05-02.17760 1.000E-05 09:21:40.150 1.500E-01 0.500 F 0.034 0.664 +18° 11' 12.50" 1.000E-01 0.500 F 0.194 0.298 20.3 R 0.70 0.45 o 691 1.47 Yes Yes
2011GL62 O C K 2017-05-02.17975 1.000E-05 09:37:01.900 1.500E-01 0.500 F 0.096 0.632 +30° 08' 40.00" 1.000E-01 0.500 F 0.189 0.461 18.6 R 0.70 -0.57 o 691 1.64 Yes Yes
2017FQ64 O C 2017-05-02.18648 1.000E-05 10:48:13.720 1.500E-01 0.500 F 0.106 -0.687 +17° 49' 29.60" 1.000E-01 0.500 F 0.170 -0.441 20.9 V 0.70 -0.21 o 691 1.64 Yes Yes
2014NA64 O C K 2017-05-02.19448 1.000E-05 11:37:44.530 1.500E-01 0.500 F 0.185 -0.275 -15° 42' 29.20" 1.000E-01 0.500 F 0.129 0.024 21.3 R 0.70 0.19 o 691 0.56 Yes Yes
2017FQ64 O C 2017-05-02.20543 1.000E-05 10:48:12.610 1.500E-01 0.500 F 0.106 0.474 +17° 49' 24.50" 1.000E-01 0.500 F 0.170 -0.453 20.9 V 0.70 -0.21 o 691 1.32 Yes Yes
2014NA64 O C K 2017-05-02.21333 1.000E-05 11:37:43.590 1.500E-01 0.500 F 0.185 -0.213 -15° 42' 21.00" 1.000E-01 0.500 F 0.129 -0.097 o 691 0.47 Yes No
2017FQ64 O C 2017-05-02.22429 1.000E-05 10:48:11.370 1.500E-01 0.500 F 0.106 -0.414 +17° 49' 20.20" 1.000E-01 0.500 F 0.170 0.401 21.0 V 0.70 -0.11 o 691 1.16 Yes Yes
2014NA64 O C K 2017-05-02.23205 1.000E-05 11:37:42.660 1.500E-01 0.500 F 0.185 -0.141 -15° 42' 12.50" 1.000E-01 0.500 F 0.129 0.104 20.8 R 0.70 -0.31 o 691 0.35 Yes Yes
2017HU4 O C K 2017-05-02.25622 1.000E-05 14:03:53.200 1.500E-01 0.500 F 0.132 0.168 -23° 04' 28.80" 1.000E-01 0.500 F 0.024 0.651 20.3 R 0.70 -0.48 o 691 1.38 Yes Yes
2017HU4 O C K 2017-05-02.26693 1.000E-05 14:03:52.840 1.500E-01 0.500 F 0.132 -0.110 -23° 04' 42.20" 1.000E-01 0.500 F 0.024 0.189 20.3 R 0.70 -0.48 o 691 0.45 Yes Yes
2017DC109 O C H 2017-05-02.27335 1.000E-05 13:14:26.500 1.500E-01 0.500 F 0.373 -0.568 -14° 48' 25.20" 1.000E-01 0.500 F 0.031 0.135 20.7 R 0.70 0.20 o 691 1.23 Yes Yes
2017HT2 O C K 2017-05-02.27705 1.000E-05 12:48:27.800 1.500E-01 0.500 F 0.235 -0.258 +20° 57' 05.30" 1.000E-01 0.500 F 0.240 -0.375 20.5 R 0.70 -0.66 o 691 0.91 Yes Yes
2017HT2 O C K 2017-05-02.28972 1.000E-05 12:48:26.890 1.500E-01 0.500 F 0.235 -0.417 +20° 57' 07.70" 1.000E-01 0.500 F 0.240 0.368 20.6 R 0.70 -0.56 o 691 1.11 Yes Yes
2017DC109 O C H 2017-05-02.29865 1.000E-05 13:14:31.810 1.500E-01 0.500 F 0.373 -0.937 -14° 48' 20.50" 1.000E-01 0.500 F 0.031 -0.105 21.0 R 0.70 0.50 o 691 1.98 Yes Yes
2010SH15 O C K 2017-05-02.33067 1.000E-05 14:57:05.040 1.500E-01 0.500 F 0.350 0.243 -29° 34' 50.60" 1.000E-01 0.500 F 0.269 0.249 o 691 0.73 Yes No
2010SH15 O C K 2017-05-02.33989 1.000E-05 14:57:03.830 1.500E-01 0.500 F 0.350 0.224 -29° 34' 52.40" 1.000E-01 0.500 F 0.269 0.228 o 691 0.67 Yes No
2017HD49 O C 2017-05-02.34647 1.000E-05 13:20:42.380 1.500E-01 0.500 F 0.214 -0.176 -02° 42' 24.00" 1.000E-01 0.500 F 0.150 0.031 20.1 V 0.70 -0.18 o 691 0.36 Yes Yes
2017HR49 O C K 2017-05-02.35154 1.000E-05 14:59:09.460 1.500E-01 0.500 F 0.124 0.056 -03° 23' 09.00" 1.000E-01 0.500 F 0.162 -0.007 20.3 R 0.70 -0.75 o 691 0.11 Yes Yes
2017HD49 O C 2017-05-02.35911 1.000E-05 13:20:43.480 1.500E-01 0.500 F 0.214 -0.457 -02° 41' 35.30" 1.000E-01 0.500 F 0.150 -0.824 20.2 V 0.70 -0.08 o 691 1.92 Yes Yes
2017HR49 O C K 2017-05-02.36408 1.000E-05 14:59:08.520 1.500E-01 0.500 F 0.124 -0.219 -03° 23' 05.00" 1.000E-01 0.500 F 0.162 0.044 20.4 R 0.70 -0.65 o 691 0.45 Yes Yes
2017HD49 O C 2017-05-02.37158 1.000E-05 13:20:44.580 1.500E-01 0.500 F 0.214 -0.594 -02° 40' 45.70" 1.000E-01 0.500 F 0.150 -0.098 20.6 V 0.70 0.32 o 691 1.22 Yes Yes
2017HR49 O C K 2017-05-02.37650 1.000E-05 14:59:07.620 1.500E-01 0.500 F 0.124 -0.034 -03° 23' 00.80" 1.000E-01 0.500 F 0.162 0.331 20.8 R 0.70 -0.25 o 691 0.67 Yes Yes
2017HP49 O C 2017-05-02.38736 1.000E-05 16:29:53.880 1.500E-01 0.500 F 0.121 -0.215 +00° 03' 58.60" 1.000E-01 0.500 F 0.221 0.012 20.5 V 0.70 -0.13 o 691 0.43 Yes Yes
2017HP49 O C 2017-05-02.39375 1.000E-05 16:29:55.150 1.500E-01 0.500 F 0.121 -0.280 +00° 03' 59.60" 1.000E-01 0.500 F 0.221 -0.009 20.7 V 0.70 0.07 o 691 0.56 Yes Yes
2017HP49 O C 2017-05-02.40015 1.000E-05 16:29:56.450 1.500E-01 0.500 F 0.121 0.064 +00° 04' 00.80" 1.000E-01 0.500 F 0.221 0.169 20.3 V 0.70 -0.33 o 691 0.36 Yes Yes
2015KJ122 O C K 2017-05-02.40346 1.000E-05 15:31:41.650 1.500E-01 0.500 F 0.091 -0.255 -04° 28' 30.20" 1.000E-01 0.500 F 0.243 0.002 18.9 R 0.70 -1.07 o 691 0.51 Yes Yes
2015KJ122 O C K 2017-05-02.40686 1.000E-05 15:31:39.990 1.500E-01 0.500 F 0.091 -0.275 -04° 28' 23.90" 1.000E-01 0.500 F 0.243 -0.087 19.0 R 0.70 -0.97 o 691 0.58 Yes Yes
2015KJ122 O C K 2017-05-02.41027 1.000E-05 15:31:38.330 1.500E-01 0.500 F 0.091 -0.230 -04° 28' 17.40" 1.000E-01 0.500 F 0.243 0.005 18.9 R 0.70 -1.07 o 691 0.46 Yes Yes
2016WO1 O C 2017-05-02.41381 1.000E-05 16:03:10.650 1.500E-01 0.500 F 0.086 -0.377 -02° 31' 41.20" 1.000E-01 0.500 F 0.166 0.766 18.7 V 0.70 -0.06 o 691 1.72 Yes Yes
2017HK49 O C K 2017-05-02.41583 1.000E-05 15:33:36.550 1.500E-01 0.500 F 0.215 0.280 -09° 25' 55.50" 1.000E-01 0.500 F 0.031 -0.306 o 691 0.83 Yes No
2016WO1 O C 2017-05-02.42058 1.000E-05 16:03:09.320 1.500E-01 0.500 F 0.086 -0.029 -02° 32' 04.10" 1.000E-01 0.500 F 0.166 0.031 19.0 V 0.70 0.24 o 691 0.09 Yes Yes
2017HK49 O C K 2017-05-02.42259 1.000E-05 15:33:36.910 1.500E-01 0.500 F 0.215 -0.569 -09° 25' 53.50" 1.000E-01 0.500 F 0.031 -0.054 o 691 1.15 Yes No
2016WO1 O C 2017-05-02.42734 1.000E-05 16:03:07.960 1.500E-01 0.500 F 0.086 -0.180 -02° 32' 27.00" 1.000E-01 0.500 F 0.166 -0.743 18.7 V 0.70 -0.06 o 691 1.53 Yes Yes
2017HK49 O C K 2017-05-02.42936 1.000E-05 15:33:37.390 1.500E-01 0.500 F 0.215 0.324 -09° 25' 51.20" 1.000E-01 0.500 F 0.031 0.489 o 691 1.18 Yes No
2017HG2 O C K 2017-05-02.43468 1.000E-05 16:21:07.430 1.500E-01 0.500 F 0.168 -0.136 +07° 52' 52.70" 1.000E-01 0.500 F 0.105 0.029 21.4 R 0.70 0.26 o 691 0.28 Yes Yes
2017HG2 O C K 2017-05-02.44371 1.000E-05 16:21:06.730 1.500E-01 0.500 F 0.168 -0.146 +07° 52' 55.40" 1.000E-01 0.500 F 0.105 -0.325 20.9 R 0.70 -0.24 o 691 0.72 Yes Yes
2008AZ110 O C K 2017-05-02.46071 1.000E-05 21:24:46.500 1.500E-01 0.500 F -0.179 -0.095 -18° 06' 59.80" 1.000E-01 0.500 F 0.275 0.085 20.0 R 0.70 -0.42 o 691 0.26 Yes Yes
2008AZ110 O C K 2017-05-02.46427 1.000E-05 21:24:47.010 1.500E-01 0.500 F -0.179 -0.100 -18° 06' 57.00" 1.000E-01 0.500 F 0.275 -0.090 19.8 R 0.70 -0.62 o 691 0.28 Yes Yes
2008AZ110 O C K 2017-05-02.46784 1.000E-05 21:24:47.520 1.500E-01 0.500 F -0.179 -0.122 -18° 06' 54.00" 1.000E-01 0.500 F 0.275 -0.074 20.2 R 0.70 -0.22 o 691 0.29 Yes Yes
2017HS O C K 2017-05-03.13310 1.000E-05 12:26:22.380 1.500E-01 0.500 F 0.170 -0.259 +11° 44' 51.30" 1.000E-01 0.500 F 0.328 0.032 o 691 0.53 Yes No
2001QH96 O C 2017-05-03.13310 1.000E-05 12:28:25.420 1.500E-01 0.500 F 0.111 -0.254 +12° 05' 56.60" 1.000E-01 0.500 F 0.277 -0.047 20.2 V 0.70 0.36 o 691 0.52 Yes Yes
2001QH96 O C 2017-05-03.14746 1.000E-05 12:28:24.680 1.500E-01 0.500 F 0.111 -0.209 +12° 06' 09.60" 1.000E-01 0.500 F 0.277 0.537 20.0 V 0.70 0.16 o 691 1.16 Yes Yes
2017HS O C K 2017-05-03.14746 1.000E-05 12:26:20.980 1.500E-01 0.500 F 0.170 0.009 +11° 45' 17.10" 1.000E-01 0.500 F 0.328 0.306 o 691 0.63 Yes No
2017HS O C K 2017-05-03.16003 1.000E-05 12:26:19.730 1.500E-01 0.500 F 0.170 -0.064 +11° 45' 39.20" 1.000E-01 0.500 F 0.328 0.088 o 691 0.22 Yes No
2001QH96 O C 2017-05-03.16183 1.000E-05 12:28:23.940 1.500E-01 0.500 F 0.111 -0.131 +12° 06' 21.50" 1.000E-01 0.500 F 0.277 0.033 20.2 V 0.70 0.36 o 691 0.27 Yes Yes
2017HX4 O C K 2017-05-03.18428 1.000E-05 13:54:27.280 1.500E-01 0.500 F 0.263 -0.223 -10° 22' 49.50" 1.000E-01 0.500 F 0.203 -0.354 19.1 R 0.70 -0.58 o 691 0.88 Yes Yes
2017HX4 O C K 2017-05-03.19610 1.000E-05 13:54:25.650 1.500E-01 0.500 F 0.283 -0.791 -10° 24' 42.30" 1.000E-01 0.500 F 0.150 -0.276 18.7 R 0.70 -0.97 o 691 1.75 Yes Yes
2017HX4 O C K 2017-05-03.20790 1.000E-05 13:54:24.070 1.500E-01 0.500 F 0.283 -0.018 -10° 26' 35.00" 1.000E-01 0.500 F 0.150 -0.036 18.9 R 0.70 -0.77 o 691 0.08 Yes Yes
2017FK128 O C K 2017-05-03.21827 1.000E-05 14:58:11.290 1.500E-01 0.500 F 0.360 -0.264 -11° 18' 11.50" 1.000E-01 0.500 F 0.204 -0.368 21.6 R 0.70 0.63 o 691 0.93 Yes Yes
2017FK128 O C K 2017-05-03.23128 1.000E-05 14:58:11.060 1.500E-01 0.500 F 0.360 0.524 -11° 18' 00.50" 1.000E-01 0.500 F 0.204 -0.408 o 691 1.36 Yes No
2017HJ49 O C K 2017-05-03.25055 1.000E-05 14:46:26.530 1.500E-01 0.500 F 0.240 0.114 -13° 35' 04.70" 1.000E-01 0.500 F 0.046 -0.041 o 691 0.25 Yes No
2017HJ49 O C K 2017-05-03.25743 1.000E-05 14:46:25.200 1.500E-01 0.500 F 0.240 0.434 -13° 35' 09.70" 1.000E-01 0.500 F 0.046 0.200 o 691 1.00 Yes No
2017JT1 O C K 2017-05-03.26442 1.000E-05 13:38:13.090 1.500E-01 0.500 F 0.191 0.080 +12° 23' 16.60" 1.000E-01 0.500 F 0.167 -0.317 o 691 0.69 Yes No
2017JT1 O C K 2017-05-03.26779 1.000E-05 13:38:13.720 1.500E-01 0.500 F 0.191 0.254 +12° 22' 42.90" 1.000E-01 0.500 F 0.167 0.027 o 691 0.54 Yes No
2017JT1 O C K 2017-05-03.27117 1.000E-05 13:38:14.330 1.500E-01 0.500 F 0.191 0.112 +12° 22' 08.50" 1.000E-01 0.500 F 0.167 -0.237 18.7 R 0.70 -0.30 o 691 0.55 Yes Yes
2017JU1 O C 2017-05-03.27879 1.000E-05 14:15:52.780 1.500E-01 0.500 F 0.151 -0.013 +15° 55' 37.70" 1.000E-01 0.500 F 0.250 -0.340 21.1 V 0.70 0.21 o 691 0.71 Yes Yes
2017JU1 O C 2017-05-03.28220 1.000E-05 14:15:53.320 1.500E-01 0.500 F 0.151 -0.395 +15° 55' 37.30" 1.000E-01 0.500 F 0.250 0.003 20.9 V 0.70 0.01 o 691 0.82 Yes Yes
2017JU1 O C 2017-05-03.28816 1.000E-05 14:15:54.310 1.500E-01 0.500 F 0.151 -0.396 +15° 55' 35.80" 1.000E-01 0.500 F 0.250 -0.166 21.4 V 0.70 0.51 o 691 0.89 Yes Yes
2017JR1 O C K 2017-05-03.30023 1.000E-05 14:51:10.480 1.500E-01 0.612 F 0.216 0.131 +01° 03' 23.40" 1.000E-01 0.612 F 0.109 0.088 o 691 0.26 Yes No
2017JR1 O C K 2017-05-03.30363 1.000E-05 14:51:11.140 1.500E-01 0.612 F 0.216 0.086 +01° 03' 53.20" 1.000E-01 0.612 F 0.109 0.227 19.1 R 0.70 -0.55 o 691 0.40 Yes Yes
2017JR1 O C K 2017-05-03.30704 1.000E-05 14:51:11.800 1.500E-01 0.612 F 0.216 0.010 +01° 04' 22.70" 1.000E-01 0.612 F 0.109 -0.034 19.2 R 0.70 -0.45 o 691 0.06 Yes Yes
2017JS1 O C K 2017-05-03.31045 1.000E-05 15:27:53.790 1.500E-01 0.500 F 0.214 -0.399 -09° 44' 15.70" 1.000E-01 0.500 F 0.121 0.227 18.2 R 0.70 -1.48 o 691 0.97 Yes Yes
2017GU6 O C 2017-05-03.31045 1.000E-05 15:26:06.680 1.500E-01 0.500 F 0.255 -0.390 -09° 56' 22.10" 1.000E-01 0.500 F 0.053 0.337 19.2 V 0.70 0.19 o 691 1.04 Yes Yes
2017JS1 O C K 2017-05-03.31486 1.000E-05 15:27:51.440 1.500E-01 0.500 F 0.214 -0.214 -09° 43' 25.20" 1.000E-01 0.500 F 0.121 0.078 18.6 R 0.70 -1.08 o 691 0.48 Yes Yes
2017GU6 O C 2017-05-03.31486 1.000E-05 15:26:06.680 1.500E-01 0.500 F 0.255 -0.299 -09° 56' 30.60" 1.000E-01 0.500 F 0.053 -0.043 18.9 V 0.70 -0.11 o 691 0.61 Yes Yes
2017JS1 O C K 2017-05-03.31927 1.000E-05 15:27:49.070 1.500E-01 0.500 F 0.214 -0.330 -09° 42' 34.30" 1.000E-01 0.500 F 0.121 0.338 18.4 R 0.70 -1.28 o 691 0.99 Yes Yes
2017GU6 O C 2017-05-03.31927 1.000E-05 15:26:06.670 1.500E-01 0.500 F 0.255 -0.353 -09° 56' 38.50" 1.000E-01 0.500 F 0.053 0.174 19.1 V 0.70 0.09 o 691 0.79 Yes Yes
2017JR1 O C K 2017-05-03.32403 1.000E-05 14:51:15.100 1.500E-01 0.612 F 0.216 -0.253 +01° 06' 51.10" 1.000E-01 0.612 F 0.109 -0.102 19.6 R 0.70 -0.05 o 691 0.45 Yes Yes
2017JR1 O C K 2017-05-03.32740 1.000E-05 14:51:15.770 1.500E-01 0.612 F 0.216 -0.091 +01° 07' 20.10" 1.000E-01 0.612 F 0.109 -0.587 18.9 R 0.70 -0.75 o 691 0.99 Yes Yes
2017JR1 O C K 2017-05-03.33078 1.000E-05 14:51:16.430 1.500E-01 0.612 F 0.216 -0.118 +01° 07' 50.40" 1.000E-01 0.612 F 0.109 0.127 19.1 R 0.70 -0.55 o 691 0.29 Yes Yes
2017JV1 O C K 2017-05-03.33489 1.000E-05 14:36:23.750 1.500E-01 0.500 F 0.046 -0.335 +17° 32' 18.00" 1.000E-01 0.500 F 0.249 0.213 19.5 R 0.70 -0.53 o 691 0.84 Yes Yes
2017JV1 O C K 2017-05-03.33747 1.000E-05 14:36:24.280 1.500E-01 0.500 F 0.046 0.176 +17° 32' 06.40" 1.000E-01 0.500 F 0.249 0.101 o 691 0.42 Yes No
2017JV1 O C K 2017-05-03.34004 1.000E-05 14:36:24.750 1.500E-01 0.500 F 0.046 -0.160 +17° 31' 54.90" 1.000E-01 0.500 F 0.249 0.071 19.4 R 0.70 -0.63 o 691 0.37 Yes Yes
2017HW48 O C K 2017-05-03.35201 1.000E-05 16:40:30.540 1.500E-01 0.500 F 0.040 -0.065 -09° 40' 13.40" 1.000E-01 0.500 F 0.138 -0.039 19.8 R 0.70 -0.10 o 691 0.15 Yes Yes
2017HW48 O C K 2017-05-03.36331 1.000E-05 16:40:31.190 1.500E-01 0.500 F 0.040 -0.090 -09° 40' 12.10" 1.000E-01 0.500 F 0.138 0.162 19.8 R 0.70 -0.10 o 691 0.37 Yes Yes
2017HW48 O C K 2017-05-03.37462 1.000E-05 16:40:31.840 1.500E-01 0.500 F 0.040 -0.110 -09° 40' 10.90" 1.000E-01 0.500 F 0.138 0.250 20.1 R 0.70 0.20 o 691 0.55 Yes Yes
2014SR339 O C K 2017-05-03.38084 1.000E-05 20:46:48.510 1.500E-01 0.500 F 0.039 0.271 +08° 30' 27.40" 1.000E-01 0.500 F 0.309 0.045 20.9 R 0.70 -0.58 o 691 0.55 Yes Yes
2014SR339 O C K 2017-05-03.39501 1.000E-05 20:46:49.680 1.500E-01 0.500 F 0.039 -0.083 +08° 30' 33.90" 1.000E-01 0.500 F 0.309 -0.001 o 691 0.17 Yes No
2013RF36 O C K 2017-05-03.43864 1.000E-05 22:12:42.150 1.500E-01 0.612 F -0.010 -0.413 +13° 55' 53.30" 1.000E-01 0.612 F 0.353 -0.214 20.8 R 0.70 0.48 o 691 0.76 Yes Yes
2014SZ303 O C 2017-05-03.44200 1.000E-05 22:11:00.650 1.500E-01 0.500 F -0.052 -0.244 +07° 39' 32.90" 1.000E-01 0.500 F 0.372 -0.224 20.2 V 0.70 0.38 o 691 0.67 Yes Yes
2013RF36 O C K 2017-05-03.44377 1.000E-05 22:12:42.990 1.500E-01 0.612 F -0.010 0.119 +13° 56' 00.50" 1.000E-01 0.612 F 0.353 -0.887 o 691 1.46 Yes No
2014SZ303 O C 2017-05-03.44713 1.000E-05 22:11:00.430 1.500E-01 0.500 F -0.052 -0.227 +07° 39' 23.90" 1.000E-01 0.500 F 0.372 0.060 20.1 V 0.70 0.28 o 691 0.47 Yes Yes
2013RF36 O C K 2017-05-03.44888 1.000E-05 22:12:43.810 1.500E-01 0.612 F -0.010 0.409 +13° 56' 09.00" 1.000E-01 0.612 F 0.353 -0.230 o 691 0.77 Yes No
2004VS60 O C K 2017-05-03.45315 1.000E-05 21:07:56.380 1.500E-01 0.500 F -0.048 0.060 -01° 04' 54.40" 1.000E-01 0.500 F 0.133 0.245 o 691 0.51 Yes No
2004VS60 O C K 2017-05-03.45769 1.000E-05 21:07:57.190 1.500E-01 0.500 F -0.048 -0.356 -01° 04' 45.50" 1.000E-01 0.500 F 0.133 -0.343 20.1 R 0.70 -0.51 o 691 0.99 Yes Yes
2004VS60 O C K 2017-05-03.46222 1.000E-05 21:07:58.050 1.500E-01 0.500 F -0.048 0.008 -01° 04' 35.80" 1.000E-01 0.500 F 0.133 -0.112 20.9 R 0.70 0.29 o 691 0.22 Yes Yes
2013RF36 O C K 2017-05-03.47435 1.000E-05 22:12:47.720 1.500E-01 0.612 F -0.010 -0.682 +13° 56' 47.90" 1.000E-01 0.612 F 0.353 -0.418 o 691 1.32 Yes No
2013RF36 O C K 2017-05-03.47725 1.000E-05 22:12:48.230 1.500E-01 0.612 F -0.010 0.142 +13° 56' 52.60" 1.000E-01 0.612 F 0.353 -0.169 o 691 0.36 Yes No
2013RF36 O C K 2017-05-03.48015 1.000E-05 22:12:48.680 1.500E-01 0.612 F -0.010 0.093 +13° 56' 57.20" 1.000E-01 0.612 F 0.353 -0.019 o 691 0.16 Yes No
2014JO25 O C H 2017-05-04.13569 1.000E-05 12:12:45.060 1.500E-01 0.500 F 0.183 -0.328 -13° 49' 47.00" 1.000E-01 0.500 F 0.057 0.136 16.6 R 0.70 0.04 o 691 0.71 Yes Yes
2000AF205 O C 2017-05-04.13824 1.000E-05 13:04:09.440 1.500E-01 0.500 F 0.221 -0.197 -06° 47' 26.20" 1.000E-01 0.500 F 0.121 -0.138 19.4 V 0.70 0.25 o 691 0.49 Yes Yes
2014JO25 O C H 2017-05-04.14335 1.000E-05 12:12:45.050 1.500E-01 0.500 F 0.183 -0.223 -13° 49' 51.60" 1.000E-01 0.500 F 0.057 0.113 16.6 R 0.70 0.04 o 691 0.50 Yes Yes
2000AF205 O C 2017-05-04.14587 1.000E-05 13:04:07.250 1.500E-01 0.500 F 0.221 -0.566 -06° 47' 06.40" 1.000E-01 0.500 F 0.121 0.365 19.2 V 0.70 0.05 o 691 1.36 Yes Yes
2014JO25 O C H 2017-05-04.15101 1.000E-05 12:12:45.040 1.500E-01 0.500 F 0.183 -0.101 -13° 49' 56.10" 1.000E-01 0.500 F 0.057 0.172 16.6 R 0.70 0.04 o 691 0.40 Yes Yes
2000AF205 O C 2017-05-04.15353 1.000E-05 13:04:05.110 1.500E-01 0.500 F 0.221 0.002 -06° 46' 47.30" 1.000E-01 0.500 F 0.121 0.078 19.0 V 0.70 -0.15 o 691 0.16 Yes Yes
2017HD49 O C K 2017-05-04.16108 1.000E-05 13:23:37.240 1.500E-01 0.500 F 0.351 -0.096 -00° 47' 17.00" 1.000E-01 0.500 F 0.141 -0.022 18.5 R 0.70 -1.49 o 691 0.20 Yes Yes
2017HD49 O C K 2017-05-04.17167 1.000E-05 13:23:38.140 1.500E-01 0.500 F 0.351 -0.495 -00° 46' 38.00" 1.000E-01 0.500 F 0.141 -0.123 18.7 R 0.70 -1.29 o 691 1.05 Yes Yes
2017HD49 O C K 2017-05-04.18227 1.000E-05 13:23:39.110 1.500E-01 0.500 F 0.351 0.189 -00° 45' 58.60" 1.000E-01 0.500 F 0.141 0.152 18.4 R 0.70 -1.59 o 691 0.50 Yes Yes
2017DC109 O C K 2017-05-04.20759 1.000E-05 13:21:42.640 1.500E-01 0.500 F 0.126 0.417 -14° 42' 24.60" 1.000E-01 0.500 F 0.030 0.230 18.6 R 0.70 -1.96 o 691 1.00 Yes No
2017DC109 O C K 2017-05-04.23388 1.000E-05 13:21:48.040 1.500E-01 0.500 F 0.126 -0.043 -14° 42' 20.20" 1.000E-01 0.500 F 0.030 -0.094 18.5 R 0.70 -2.06 o 691 0.22 Yes No
2017DC109 O C K 2017-05-04.26059 1.000E-05 13:21:53.560 1.500E-01 0.500 F 0.126 0.105 -14° 42' 15.00" 1.000E-01 0.500 F 0.030 0.038 o 691 0.24 Yes No
2011KR12 O C K 2017-05-04.28041 1.000E-05 14:11:50.760 1.500E-01 0.500 F 0.334 -0.324 -25° 25' 08.90" 1.000E-01 0.500 F 0.413 0.100 o 691 0.68 Yes No
2011KR12 O C K 2017-05-04.29367 1.000E-05 14:11:47.260 1.500E-01 0.500 F 0.334 -0.056 -25° 25' 07.20" 1.000E-01 0.500 F 0.413 0.089 o 691 0.21 Yes No
2011KR12 O C K 2017-05-04.30689 1.000E-05 14:11:43.720 1.500E-01 0.500 F 0.334 -0.480 -25° 25' 05.00" 1.000E-01 0.500 F 0.413 0.508 o 691 1.40 Yes No
2017HR49 O C K 2017-05-04.31699 1.000E-05 14:56:48.390 1.500E-01 0.500 F 0.133 -0.164 -03° 13' 03.20" 1.000E-01 0.500 F 0.093 0.257 o 691 0.61 Yes No
2017FK128 O C K 2017-05-04.32756 1.000E-05 14:57:56.020 1.500E-01 0.500 F 0.372 0.133 -11° 02' 35.50" 1.000E-01 0.500 F 0.202 -0.697 o 691 1.46 Yes No
2017HR49 O C K 2017-05-04.34383 1.000E-05 14:56:46.370 1.500E-01 0.500 F 0.133 -0.117 -03° 12' 55.10" 1.000E-01 0.500 F 0.093 0.259 o 691 0.57 Yes No
2017FK128 O C K 2017-05-04.35441 1.000E-05 14:57:55.400 1.500E-01 0.500 F 0.372 0.174 -11° 02' 12.20" 1.000E-01 0.500 F 0.202 0.374 21.4 R 0.70 0.38 o 691 0.85 Yes Yes
2017HR49 O C K 2017-05-04.37070 1.000E-05 14:56:44.340 1.500E-01 0.500 F 0.133 -0.210 -03° 12' 46.50" 1.000E-01 0.500 F 0.093 0.746 o 691 1.56 Yes No
2017FK128 O C K 2017-05-04.38127 1.000E-05 14:57:54.730 1.500E-01 0.500 F 0.372 -0.691 -11° 01' 50.10" 1.000E-01 0.500 F 0.202 0.132 21.2 R 0.70 0.18 o 691 1.45 Yes Yes
2017HN49 O C H 2017-05-04.40016 1.000E-05 15:54:08.780 1.500E-01 0.500 F 0.186 -0.025 -10° 56' 28.70" 1.000E-01 0.500 F 0.195 0.562 20.5 R 0.70 0.27 o 691 1.13 Yes Yes
2017HK49 O C K 2017-05-04.40336 1.000E-05 15:36:00.510 1.500E-01 0.500 F 0.287 -0.543 -09° 18' 03.80" 1.000E-01 0.500 F 0.084 -0.085 20.7 R 0.70 -0.39 o 691 1.10 Yes Yes
2017HN49 O C H 2017-05-04.41887 1.000E-05 15:54:08.890 1.500E-01 0.500 F 0.186 -0.210 -10° 56' 44.00" 1.000E-01 0.500 F 0.195 -0.014 21.0 R 0.70 0.77 o 691 0.42 Yes Yes
2017HK49 O C K 2017-05-04.42208 1.000E-05 15:36:01.680 1.500E-01 0.500 F 0.287 -0.072 -09° 17' 59.10" 1.000E-01 0.500 F 0.084 0.091 21.5 R 0.70 0.41 o 691 0.23 Yes Yes
2017HN49 O C H 2017-05-04.43735 1.000E-05 15:54:09.010 1.500E-01 0.500 F 0.186 -0.333 -10° 56' 59.00" 1.000E-01 0.500 F 0.195 -0.508 o 691 1.22 Yes No
2017HK49 O C K 2017-05-04.44055 1.000E-05 15:36:02.830 1.500E-01 0.500 F 0.287 0.140 -09° 17' 54.20" 1.000E-01 0.500 F 0.084 0.473 20.8 R 0.70 -0.29 o 691 0.99 Yes Yes
2017HP49 O C K 2017-05-04.45491 1.000E-05 16:37:52.360 1.500E-01 0.500 F 0.112 -0.721 +00° 08' 42.60" 1.000E-01 0.500 F 0.068 0.843 19.5 R 0.70 -0.55 o 691 2.23 Yes Yes
2017HP49 O C K 2017-05-04.46394 1.000E-05 16:37:54.420 1.500E-01 0.500 F 0.112 -1.031 +00° 08' 42.40" 1.000E-01 0.500 F 0.068 -0.378 20.5 R 0.70 0.46 o 691 2.21 Yes Yes
2017HP49 O C K 2017-05-04.47299 1.000E-05 16:37:56.600 1.500E-01 0.500 F 0.112 0.300 +00° 08' 43.50" 1.000E-01 0.500 F 0.068 -0.298 20.0 R 0.70 -0.04 o 691 0.85 Yes Yes
2017CS O C 2017-05-05.13314 1.000E-05 09:29:44.330 1.500E-01 0.500 F -0.013 0.102 -08° 28' 14.40" 1.000E-01 0.500 F 0.039 -0.255 18.2 V 0.70 0.29 o 691 0.55 Yes Yes
2017FP64 O C K 2017-05-05.13668 1.000E-05 09:33:08.900 1.500E-01 0.500 F 0.220 0.573 +18° 32' 25.30" 1.000E-01 0.500 F 0.339 -0.172 o 691 1.21 Yes No
2017CS O C 2017-05-05.14998 1.000E-05 09:29:44.750 1.500E-01 0.500 F -0.013 -0.336 -08° 27' 56.70" 1.000E-01 0.500 F 0.039 -0.043 18.2 V 0.70 0.29 o 691 0.68 Yes Yes
2017FP64 O C K 2017-05-05.15349 1.000E-05 09:33:12.760 1.500E-01 0.500 F 0.220 0.558 +18° 32' 31.50" 1.000E-01 0.500 F 0.339 -0.186 o 691 1.19 Yes No
2017CS O C 2017-05-05.16678 1.000E-05 09:29:45.230 1.500E-01 0.500 F -0.013 -0.146 -08° 27' 39.10" 1.000E-01 0.500 F 0.039 0.003 18.4 V 0.70 0.49 o 691 0.29 Yes Yes
2017FP64 O C K 2017-05-05.17027 1.000E-05 09:33:16.610 1.500E-01 0.500 F 0.220 0.449 +18° 32' 37.50" 1.000E-01 0.500 F 0.339 -0.346 o 691 1.15 Yes No
2014JO25 O C H 2017-05-05.18574 1.000E-05 12:12:54.660 1.500E-01 0.500 F 0.183 0.009 -13° 59' 22.30" 1.000E-01 0.500 F 0.057 0.156 16.8 R 0.70 0.05 o 691 0.31 Yes Yes
2000AF205 O C 2017-05-05.18834 1.000E-05 12:59:27.180 1.500E-01 0.500 F 0.230 -0.167 -06° 02' 21.20" 1.000E-01 0.500 F 0.183 0.155 19.9 V 0.70 0.72 o 691 0.46 Yes Yes
2014JO25 O C H 2017-05-05.20114 1.000E-05 12:12:54.660 1.500E-01 0.500 F 0.183 -0.133 -13° 59' 30.20" 1.000E-01 0.500 F 0.057 0.196 16.8 R 0.70 0.05 o 691 0.47 Yes Yes
2000AF205 O C 2017-05-05.20367 1.000E-05 12:59:22.750 1.500E-01 0.500 F 0.230 -0.043 -06° 01' 41.30" 1.000E-01 0.500 F 0.183 0.272 19.8 V 0.70 0.62 o 691 0.56 Yes Yes
2014JO25 O C H 2017-05-05.21640 1.000E-05 12:12:54.670 1.500E-01 0.500 F 0.183 -0.144 -13° 59' 38.00" 1.000E-01 0.500 F 0.057 0.196 16.8 R 0.70 0.05 o 691 0.49 Yes Yes
2000AF205 O C 2017-05-05.21886 1.000E-05 12:59:18.370 1.500E-01 0.500 F 0.230 0.311 -06° 01' 02.00" 1.000E-01 0.500 F 0.183 0.093 19.2 V 0.70 0.02 o 691 0.66 Yes Yes
2017HV4 O C K 2017-05-05.31350 1.000E-05 14:46:39.110 1.500E-01 0.500 F 0.318 0.718 -27° 28' 44.30" 1.000E-01 0.500 F 0.278 0.184 o 691 1.49 Yes No
2017HV4 O C K 2017-05-05.33845 1.000E-05 14:46:41.340 1.500E-01 0.500 F 0.318 0.291 -27° 29' 11.40" 1.000E-01 0.500 F 0.278 0.172 20.1 R 0.70 0.11 o 691 0.68 Yes Yes
2017HN49 O C 2017-05-05.39566 1.000E-05 15:54:23.560 1.500E-01 0.500 F 0.186 -0.565 -11° 10' 04.40" 1.000E-01 0.500 F 0.195 -0.375 20.9 V 0.70 0.35 o 691 1.36 Yes Yes
2017HN49 O C 2017-05-05.40366 1.000E-05 15:54:23.650 1.500E-01 0.500 F 0.186 0.164 -11° 10' 11.10" 1.000E-01 0.500 F 0.195 -0.406 20.4 V 0.70 -0.15 o 691 0.88 Yes Yes
2017HN49 O C 2017-05-05.41162 1.000E-05 15:54:23.670 1.500E-01 0.500 F 0.186 -0.152 -11° 10' 17.10" 1.000E-01 0.500 F 0.195 0.222 20.1 V 0.70 -0.45 o 691 0.54 Yes Yes
2017HP49 O C H 2017-05-05.42369 1.000E-05 16:42:01.140 1.500E-01 0.500 F 0.113 0.992 +00° 10' 18.00" 1.000E-01 0.500 F 0.063 -1.052 o 691 2.91 Yes No
2017HP49 O C H 2017-05-05.43500 1.000E-05 16:42:03.900 1.500E-01 0.500 F 0.086 0.824 +00° 10' 20.00" 1.000E-01 0.500 F 0.109 -0.089 20.3 R 0.70 0.34 o 691 1.67 Yes Yes
2017HP49 O C H 2017-05-05.44625 1.000E-05 16:42:06.620 1.500E-01 0.500 F 0.086 0.144 +00° 10' 21.50" 1.000E-01 0.500 F 0.109 0.430 20.3 R 0.70 0.34 o 691 0.91 Yes Yes
2017HG2 O C K 2017-05-06.39507 1.000E-05 16:16:23.720 1.500E-01 0.500 F 0.166 0.268 +08° 10' 08.80" 1.000E-01 0.500 F 0.143 0.498 o 691 1.16 Yes No
2017HG2 O C K 2017-05-06.42281 1.000E-05 16:16:21.400 1.500E-01 0.500 F 0.166 -0.405 +08° 10' 13.20" 1.000E-01 0.500 F 0.143 0.100 o 691 0.84 Yes No
2017FE1 O C H 2017-05-16.17369 1.000E-05 09:20:36.070 1.500E-01 0.500 F 0.138 0.718 +19° 59' 24.80" 1.000E-01 0.500 F 0.221 0.630 20.4 R 0.70 0.86 o 691 1.92 Yes Yes
2017FE1 O C H 2017-05-16.19989 1.000E-05 09:20:32.330 1.500E-01 0.500 F 0.138 1.073 +19° 59' 15.40" 1.000E-01 0.500 F 0.221 -1.339 20.1 R 0.70 0.56 o 691 3.42 No Yes
2006JF42 O C H 2017-05-16.21749 1.000E-05 09:28:47.310 1.500E-01 0.500 F 0.128 -0.468 +13° 25' 01.80" 1.000E-01 0.500 F 0.253 -0.050 19.1 R 0.70 0.79 o 691 0.96 Yes Yes
2006JF42 O C H 2017-05-16.22137 1.000E-05 09:28:48.780 1.500E-01 0.500 F 0.128 -1.046 +13° 24' 50.00" 1.000E-01 0.500 F 0.253 0.011 19.5 R 0.70 1.19 o 691 2.13 Yes Yes
2006JF42 O C H 2017-05-16.22525 1.000E-05 09:28:50.360 1.500E-01 0.500 F 0.128 -0.032 +13° 24' 37.90" 1.000E-01 0.500 F 0.253 -0.228 19.9 R 0.70 1.59 o 691 0.46 Yes Yes
2014NA64 O C K 2017-05-16.23139 1.000E-05 11:32:01.520 1.500E-01 0.500 F 0.163 0.556 -14° 11' 31.90" 1.000E-01 0.500 F 0.000 -0.832 o 691 2.02 Yes No

[1-200] [201-400] [401-600] [601-800] [801-1000] [1001-1200] [1201-1400] [1401-1600] [1601-1800] [1801-2000] [2001-2200] [2201-2400] [2401-2600] [2601-2800] [2801-3000] [3001-3200] [3201-3400] [3401-3600] [3601-3800] [3801-4000] [4001-4200] [4201-4400] [4401-4600] [4601-4800] [4801-5000] [5001-5200] [5201-5400] [5401-5600] [5601-5800] [5801-6000] [6001-6200] [6201-6400] [6401-6600] [6601-6800] [6801-7000] [7001-7200] [7201-7400] [7401-7600] [7601-7800] [7801-8000] [8001-8200] [8201-8400] [8401-8600] [8601-8800] [8801-9000] [9001-9200] [9201-9400] [9401-9600] [9601-9800] [9801-10000] [10001-10200] [10201-10400] [10401-10600] [10601-10800] [10801-11000] [11001-11200] [11201-11400] [11401-11600] [11601-11800] [11801-12000] [12001-12200] [12201-12400] [12401-12600] [12601-12800] [12801-13000] [13001-13200] [13201-13400] [13401-13600] [13601-13800] [13801-14000] [14001-14200] [14201-14400] [14401-14600] [14601-14800] [14801-15000] [15001-15200] [15201-15400] [15401-15600] [15601-15800] [15801-16000] [16001-16200] [16201-16400] [16401-16600] [16601-16800] [16801-17000] [17001-17200] [17201-17400] [17401-17600] [17601-17800] [17801-18000] [18001-18200] [18201-18400] [18401-18600] [18601-18800] [18801-19000] [19001-19200] [19201-19400] [19401-19600] [19601-19800] [19801-20000] [20001-20200] [20201-20400] [20401-20600] [20601-20800] [20801-21000] [21001-21200] [21201-21400] [21401-21600] [21601-21800] [21801-22000] [22001-22200] [22201-22400] [22401-22600] [22601-22800] [22801-23000] [23001-23200] [23201-23400] [23401-23600] [23601-23800] [23801-24000] [24001-24200] [24201-24400] [24401-24600] [24601-24800] [24801-25000] [25001-25200] [25201-25400] [25401-25600] [25601-25800] [25801-26000] [26001-26200] [26201-26400] [26401-26600] [26601-26800] [26801-27000] [27001-27200] [27201-27400] [27401-27600] [27601-27800] [27801-28000] [28001-28200] [28201-28400] [28401-28600] [28601-28800] [28801-29000] [29001-29200] [29201-29400] [29401-29600] [29601-29800] [29801-30000] [30001-30200] [30201-30400] [30401-30600] [30601-30800] [30801-31000] [31001-31200] [31201-31400] [31401-31600] [31601-31800] [31801-32000] [32001-32200] [32201-32400] [32401-32600] [32601-32800] [32801-33000] [33001-33200] [33201-33400] [33401-33600] [33601-33800] [33801-34000] [34001-34200] [34201-34400] [34401-34600] [34601-34800] [34801-35000] [35001-35200] [35201-35400] [35401-35600] [35601-35800] [35801-36000] [36001-36200] [36201-36400] [36401-36600] [36601-36800] [36801-37000] [37001-37200] [37201-37400] [37401-37600] [37601-37800] [37801-38000] [38001-38200] [38201-38400] [38401-38600] [38601-38800] [38801-39000] [39001-39200] [39201-39400] [39401-39600] [39601-39800] [39801-40000] [40001-40200] [40201-40400] [40401-40600] [40601-40800] [40801-41000] [41001-41200] [41201-41400] [41401-41600] [41601-41800] [41801-42000] [42001-42200] [42201-42400] [42401-42600] [42601-42800] [42801-43000] [43001-43200] [43201-43400] [43401-43600] [43601-43800] [43801-44000] [44001-44200] [44201-44400] [44401-44600] [44601-44800] [44801-45000] [45001-45200] [45201-45400] [45401-45600] [45601-45800] [45801-46000] [46001-46200] [46201-46400] [46401-46600] [46601-46800] [46801-47000] [47001-47200] [47201-47400] [47401-47600] [47601-47800] [47801-48000] [48001-48200] [48201-48400] [48401-48600] [48601-48800] [48801-49000] [49001-49200] [49201-49400] [49401-49600] [49601-49800] [49801-50000] [50001-50200] [50201-50400] [50401-50600] [50601-50741]